sensor_id;sensor_type;location;lat;lon;timestamp;temperature;humidity
1277;DHT22;631;51.024;13.826;2023-05-07T00:00:25;11.30;99.90
1277;DHT22;631;51.024;13.826;2023-05-07T00:02:51;11.20;99.90
1277;DHT22;631;51.024;13.826;2023-05-07T00:05:17;11.20;99.90
1277;DHT22;631;51.024;13.826;2023-05-07T00:07:43;11.20;99.90
1277;DHT22;631;51.024;13.826;2023-05-07T00:10:10;11.20;99.90
1277;DHT22;631;51.024;13.826;2023-05-07T00:12:37;11.20;99.90
1277;DHT22;631;51.024;13.826;2023-05-07T00:15:03;11.10;99.90
1277;DHT22;631;51.024;13.826;2023-05-07T00:17:29;11.10;99.90
1277;DHT22;631;51.024;13.826;2023-05-07T00:19:55;11.10;99.90
1277;DHT22;631;51.024;13.826;2023-05-07T00:22:21;11.10;99.90
1277;DHT22;631;51.024;13.826;2023-05-07T00:24:46;11.00;99.90
1277;DHT22;631;51.024;13.826;2023-05-07T00:27:12;11.00;99.90
1277;DHT22;631;51.024;13.826;2023-05-07T00:29:38;11.00;99.90
1277;DHT22;631;51.024;13.826;2023-05-07T00:32:03;11.00;99.90
1277;DHT22;631;51.024;13.826;2023-05-07T00:34:29;10.90;99.90
1277;DHT22;631;51.024;13.826;2023-05-07T00:36:54;11.00;99.90
1277;DHT22;631;51.024;13.826;2023-05-07T00:39:20;10.90;99.90
1277;DHT22;631;51.024;13.826;2023-05-07T00:41:46;10.90;99.90
1277;DHT22;631;51.024;13.826;2023-05-07T00:44:12;10.90;99.90
1277;DHT22;631;51.024;13.826;2023-05-07T00:46:38;10.90;99.90
1277;DHT22;631;51.024;13.826;2023-05-07T00:49:04;10.90;99.90
1277;DHT22;631;51.024;13.826;2023-05-07T00:51:30;10.90;99.90
1277;DHT22;631;51.024;13.826;2023-05-07T00:53:56;10.90;99.90
1277;DHT22;631;51.024;13.826;2023-05-07T00:56:22;10.80;99.90
1277;DHT22;631;51.024;13.826;2023-05-07T00:58:49;10.80;99.90
1277;DHT22;631;51.024;13.826;2023-05-07T01:01:14;10.80;99.90
1277;DHT22;631;51.024;13.826;2023-05-07T01:03:43;10.70;99.90
1277;DHT22;631;51.024;13.826;2023-05-07T01:06:10;10.70;99.90
1277;DHT22;631;51.024;13.826;2023-05-07T01:08:39;10.80;99.90
1277;DHT22;631;51.024;13.826;2023-05-07T01:11:06;10.70;99.90
1277;DHT22;631;51.024;13.826;2023-05-07T01:13:32;10.60;99.90
1277;DHT22;631;51.024;13.826;2023-05-07T01:15:58;10.60;99.90
1277;DHT22;631;51.024;13.826;2023-05-07T01:18:24;10.60;99.90
1277;DHT22;631;51.024;13.826;2023-05-07T01:20:51;10.60;99.90
1277;DHT22;631;51.024;13.826;2023-05-07T01:23:18;10.50;99.90
1277;DHT22;631;51.024;13.826;2023-05-07T01:25:50;10.50;99.90
1277;DHT22;631;51.024;13.826;2023-05-07T01:28:15;10.50;99.90
1277;DHT22;631;51.024;13.826;2023-05-07T01:30:42;10.50;99.90
1277;DHT22;631;51.024;13.826;2023-05-07T01:33:13;10.50;99.90
1277;DHT22;631;51.024;13.826;2023-05-07T01:35:43;10.50;99.90
1277;DHT22;631;51.024;13.826;2023-05-07T01:38:11;10.50;99.90
1277;DHT22;631;51.024;13.826;2023-05-07T01:40:37;10.50;99.90
1277;DHT22;631;51.024;13.826;2023-05-07T01:43:03;10.50;99.90
1277;DHT22;631;51.024;13.826;2023-05-07T01:45:30;10.50;99.90
1277;DHT22;631;51.024;13.826;2023-05-07T01:47:58;10.50;99.90
1277;DHT22;631;51.024;13.826;2023-05-07T01:50:25;10.50;99.90
1277;DHT22;631;51.024;13.826;2023-05-07T01:52:51;10.50;99.90
1277;DHT22;631;51.024;13.826;2023-05-07T01:55:17;10.50;99.90
1277;DHT22;631;51.024;13.826;2023-05-07T01:57:42;10.50;99.90
1277;DHT22;631;51.024;13.826;2023-05-07T02:00:08;10.60;99.90
1277;DHT22;631;51.024;13.826;2023-05-07T02:02:34;10.60;99.90
1277;DHT22;631;51.024;13.826;2023-05-07T02:05:00;10.60;99.90
1277;DHT22;631;51.024;13.826;2023-05-07T02:07:27;10.60;99.90
1277;DHT22;631;51.024;13.826;2023-05-07T02:09:53;10.60;99.90
1277;DHT22;631;51.024;13.826;2023-05-07T02:12:19;10.60;99.90
1277;DHT22;631;51.024;13.826;2023-05-07T02:15:03;10.60;99.90
1277;DHT22;631;51.024;13.826;2023-05-07T02:17:29;10.70;99.90
1277;DHT22;631;51.024;13.826;2023-05-07T02:19:57;10.60;99.90
1277;DHT22;631;51.024;13.826;2023-05-07T02:22:22;10.70;99.90
1277;DHT22;631;51.024;13.826;2023-05-07T02:24:48;10.60;99.90
1277;DHT22;631;51.024;13.826;2023-05-07T02:27:14;10.70;99.90
1277;DHT22;631;51.024;13.826;2023-05-07T02:29:40;10.70;99.90
1277;DHT22;631;51.024;13.826;2023-05-07T02:32:05;10.70;99.90
1277;DHT22;631;51.024;13.826;2023-05-07T02:34:31;10.60;99.90
1277;DHT22;631;51.024;13.826;2023-05-07T02:36:57;10.50;99.90
1277;DHT22;631;51.024;13.826;2023-05-07T02:39:22;10.60;99.90
1277;DHT22;631;51.024;13.826;2023-05-07T02:41:48;10.60;99.90
1277;DHT22;631;51.024;13.826;2023-05-07T02:44:13;10.60;99.90
1277;DHT22;631;51.024;13.826;2023-05-07T02:46:39;10.60;99.90
1277;DHT22;631;51.024;13.826;2023-05-07T02:49:05;10.60;99.90
1277;DHT22;631;51.024;13.826;2023-05-07T02:51:31;10.60;99.90
1277;DHT22;631;51.024;13.826;2023-05-07T02:53:57;10.60;99.90
1277;DHT22;631;51.024;13.826;2023-05-07T02:56:22;10.60;99.90
1277;DHT22;631;51.024;13.826;2023-05-07T02:58:48;10.60;99.90
1277;DHT22;631;51.024;13.826;2023-05-07T03:01:13;10.60;99.90
1277;DHT22;631;51.024;13.826;2023-05-07T03:03:40;10.60;99.90
1277;DHT22;631;51.024;13.826;2023-05-07T03:06:06;10.60;99.90
1277;DHT22;631;51.024;13.826;2023-05-07T03:08:32;10.60;99.90
1277;DHT22;631;51.024;13.826;2023-05-07T03:10:58;10.50;99.90
1277;DHT22;631;51.024;13.826;2023-05-07T03:13:23;10.50;99.90
1277;DHT22;631;51.024;13.826;2023-05-07T03:15:49;10.60;99.90
1277;DHT22;631;51.024;13.826;2023-05-07T03:18:14;10.60;99.90
1277;DHT22;631;51.024;13.826;2023-05-07T03:20:40;10.60;99.90
1277;DHT22;631;51.024;13.826;2023-05-07T03:23:06;10.60;99.90
1277;DHT22;631;51.024;13.826;2023-05-07T03:25:32;10.50;99.90
1277;DHT22;631;51.024;13.826;2023-05-07T03:27:58;10.50;99.90
1277;DHT22;631;51.024;13.826;2023-05-07T03:30:23;10.50;99.90
1277;DHT22;631;51.024;13.826;2023-05-07T03:32:49;10.60;99.90
1277;DHT22;631;51.024;13.826;2023-05-07T03:35:15;10.50;99.90
1277;DHT22;631;51.024;13.826;2023-05-07T03:37:41;10.40;99.90
1277;DHT22;631;51.024;13.826;2023-05-07T03:40:07;10.40;99.90
1277;DHT22;631;51.024;13.826;2023-05-07T03:42:33;10.40;99.90
1277;DHT22;631;51.024;13.826;2023-05-07T03:44:59;10.40;99.90
1277;DHT22;631;51.024;13.826;2023-05-07T03:47:24;10.40;99.90
1277;DHT22;631;51.024;13.826;2023-05-07T03:49:50;10.40;99.90
1277;DHT22;631;51.024;13.826;2023-05-07T03:52:18;10.30;99.90
1277;DHT22;631;51.024;13.826;2023-05-07T03:54:48;10.40;99.90
1277;DHT22;631;51.024;13.826;2023-05-07T03:57:13;10.30;99.90
1277;DHT22;631;51.024;13.826;2023-05-07T03:59:39;10.40;99.90
1277;DHT22;631;51.024;13.826;2023-05-07T04:02:05;10.30;99.90
1277;DHT22;631;51.024;13.826;2023-05-07T04:04:30;10.30;99.90
1277;DHT22;631;51.024;13.826;2023-05-07T04:06:58;10.30;99.90
1277;DHT22;631;51.024;13.826;2023-05-07T04:09:24;10.30;99.90
1277;DHT22;631;51.024;13.826;2023-05-07T04:11:50;10.30;99.90
1277;DHT22;631;51.024;13.826;2023-05-07T04:14:16;10.30;99.90
1277;DHT22;631;51.024;13.826;2023-05-07T04:16:42;10.30;99.90
1277;DHT22;631;51.024;13.826;2023-05-07T04:19:07;10.30;99.90
1277;DHT22;631;51.024;13.826;2023-05-07T04:21:33;10.30;99.90
1277;DHT22;631;51.024;13.826;2023-05-07T04:23:58;10.30;99.90
1277;DHT22;631;51.024;13.826;2023-05-07T04:26:24;10.30;99.90
1277;DHT22;631;51.024;13.826;2023-05-07T04:28:50;10.40;99.90
1277;DHT22;631;51.024;13.826;2023-05-07T04:31:16;10.40;99.90
1277;DHT22;631;51.024;13.826;2023-05-07T04:33:41;10.40;99.90
1277;DHT22;631;51.024;13.826;2023-05-07T04:36:07;10.40;99.90
1277;DHT22;631;51.024;13.826;2023-05-07T04:38:33;10.50;99.90
1277;DHT22;631;51.024;13.826;2023-05-07T04:41:06;10.60;99.90
1277;DHT22;631;51.024;13.826;2023-05-07T04:43:32;10.80;99.90
1277;DHT22;631;51.024;13.826;2023-05-07T04:45:58;10.80;99.90
1277;DHT22;631;51.024;13.826;2023-05-07T04:48:23;10.80;99.90
1277;DHT22;631;51.024;13.826;2023-05-07T04:50:50;10.80;99.90
1277;DHT22;631;51.024;13.826;2023-05-07T04:53:17;10.70;99.90
1277;DHT22;631;51.024;13.826;2023-05-07T04:55:43;10.70;99.90
1277;DHT22;631;51.024;13.826;2023-05-07T04:58:09;10.80;99.90
1277;DHT22;631;51.024;13.826;2023-05-07T05:00:34;10.80;99.90
1277;DHT22;631;51.024;13.826;2023-05-07T05:03:00;10.80;99.90
1277;DHT22;631;51.024;13.826;2023-05-07T05:05:26;10.80;99.90
1277;DHT22;631;51.024;13.826;2023-05-07T05:07:51;10.80;99.90
1277;DHT22;631;51.024;13.826;2023-05-07T05:10:17;10.90;99.90
1277;DHT22;631;51.024;13.826;2023-05-07T05:12:43;10.80;99.90
1277;DHT22;631;51.024;13.826;2023-05-07T05:15:11;10.80;99.90
1277;DHT22;631;51.024;13.826;2023-05-07T05:17:37;10.90;99.90
1277;DHT22;631;51.024;13.826;2023-05-07T05:20:03;11.00;99.90
1277;DHT22;631;51.024;13.826;2023-05-07T05:22:29;11.00;99.90
1277;DHT22;631;51.024;13.826;2023-05-07T05:24:56;11.00;99.90
1277;DHT22;631;51.024;13.826;2023-05-07T05:27:22;11.00;99.90
1277;DHT22;631;51.024;13.826;2023-05-07T05:29:47;11.10;99.90
1277;DHT22;631;51.024;13.826;2023-05-07T05:32:13;11.10;99.90
1277;DHT22;631;51.024;13.826;2023-05-07T05:34:38;11.10;99.90
1277;DHT22;631;51.024;13.826;2023-05-07T05:37:04;11.20;99.90
1277;DHT22;631;51.024;13.826;2023-05-07T05:39:30;11.20;99.90
1277;DHT22;631;51.024;13.826;2023-05-07T05:41:56;11.30;99.90
1277;DHT22;631;51.024;13.826;2023-05-07T05:44:21;11.30;99.90
1277;DHT22;631;51.024;13.826;2023-05-07T05:46:47;11.20;99.90
1277;DHT22;631;51.024;13.826;2023-05-07T05:49:15;11.20;99.90
1277;DHT22;631;51.024;13.826;2023-05-07T05:51:40;11.20;99.90
1277;DHT22;631;51.024;13.826;2023-05-07T05:54:06;11.10;99.90
1277;DHT22;631;51.024;13.826;2023-05-07T05:56:31;11.10;99.90
1277;DHT22;631;51.024;13.826;2023-05-07T05:58:57;11.10;99.90
1277;DHT22;631;51.024;13.826;2023-05-07T06:01:23;11.10;99.90
1277;DHT22;631;51.024;13.826;2023-05-07T06:03:49;11.20;99.90
1277;DHT22;631;51.024;13.826;2023-05-07T06:06:14;11.20;99.90
1277;DHT22;631;51.024;13.826;2023-05-07T06:08:40;11.30;99.90
1277;DHT22;631;51.024;13.826;2023-05-07T06:11:06;11.30;99.90
1277;DHT22;631;51.024;13.826;2023-05-07T06:13:31;11.40;99.90
1277;DHT22;631;51.024;13.826;2023-05-07T06:15:58;11.40;99.90
1277;DHT22;631;51.024;13.826;2023-05-07T06:18:24;11.40;99.90
1277;DHT22;631;51.024;13.826;2023-05-07T06:20:52;11.40;99.90
1277;DHT22;631;51.024;13.826;2023-05-07T06:23:18;11.40;99.90
1277;DHT22;631;51.024;13.826;2023-05-07T06:25:50;11.40;99.90
1277;DHT22;631;51.024;13.826;2023-05-07T06:28:16;11.40;99.90
1277;DHT22;631;51.024;13.826;2023-05-07T06:30:41;11.40;99.90
1277;DHT22;631;51.024;13.826;2023-05-07T06:33:25;11.40;99.90
1277;DHT22;631;51.024;13.826;2023-05-07T06:39:20;11.40;99.90
1277;DHT22;631;51.024;13.826;2023-05-07T06:41:46;11.40;99.90
1277;DHT22;631;51.024;13.826;2023-05-07T06:44:12;11.40;99.90
1277;DHT22;631;51.024;13.826;2023-05-07T06:46:37;11.40;99.90
1277;DHT22;631;51.024;13.826;2023-05-07T06:49:03;11.40;99.90
1277;DHT22;631;51.024;13.826;2023-05-07T06:51:28;11.40;99.90
1277;DHT22;631;51.024;13.826;2023-05-07T06:53:54;11.50;99.90
1277;DHT22;631;51.024;13.826;2023-05-07T06:56:20;11.60;99.90
1277;DHT22;631;51.024;13.826;2023-05-07T06:58:46;11.60;99.90
1277;DHT22;631;51.024;13.826;2023-05-07T07:01:11;11.50;99.90
1277;DHT22;631;51.024;13.826;2023-05-07T07:03:37;11.60;99.90
1277;DHT22;631;51.024;13.826;2023-05-07T07:06:03;11.50;99.90
1277;DHT22;631;51.024;13.826;2023-05-07T07:08:28;11.60;99.90
1277;DHT22;631;51.024;13.826;2023-05-07T07:10:54;11.50;99.90
1277;DHT22;631;51.024;13.826;2023-05-07T07:13:19;11.60;99.90
1277;DHT22;631;51.024;13.826;2023-05-07T07:15:46;11.60;99.90
1277;DHT22;631;51.024;13.826;2023-05-07T07:18:11;11.70;99.90
1277;DHT22;631;51.024;13.826;2023-05-07T07:20:37;11.60;99.90
1277;DHT22;631;51.024;13.826;2023-05-07T07:23:03;11.50;99.90
1277;DHT22;631;51.024;13.826;2023-05-07T07:25:28;11.50;99.90
1277;DHT22;631;51.024;13.826;2023-05-07T07:27:54;11.60;99.90
1277;DHT22;631;51.024;13.826;2023-05-07T07:30:19;11.60;99.90
1277;DHT22;631;51.024;13.826;2023-05-07T07:32:45;11.60;99.90
1277;DHT22;631;51.024;13.826;2023-05-07T07:35:10;11.70;99.90
1277;DHT22;631;51.024;13.826;2023-05-07T07:37:36;11.60;99.90
1277;DHT22;631;51.024;13.826;2023-05-07T07:40:02;11.70;99.90
1277;DHT22;631;51.024;13.826;2023-05-07T07:42:28;11.60;99.90
1277;DHT22;631;51.024;13.826;2023-05-07T07:44:54;11.70;99.90
1277;DHT22;631;51.024;13.826;2023-05-07T07:47:20;11.70;99.90
1277;DHT22;631;51.024;13.826;2023-05-07T07:49:46;11.70;99.90
1277;DHT22;631;51.024;13.826;2023-05-07T07:52:11;11.80;99.90
1277;DHT22;631;51.024;13.826;2023-05-07T07:54:37;11.90;99.90
1277;DHT22;631;51.024;13.826;2023-05-07T07:57:03;12.00;99.90
1277;DHT22;631;51.024;13.826;2023-05-07T07:59:28;12.10;99.90
1277;DHT22;631;51.024;13.826;2023-05-07T08:01:54;12.00;99.90
1277;DHT22;631;51.024;13.826;2023-05-07T08:04:22;12.00;99.90
1277;DHT22;631;51.024;13.826;2023-05-07T08:06:47;12.00;99.90
1277;DHT22;631;51.024;13.826;2023-05-07T08:09:13;12.00;99.90
1277;DHT22;631;51.024;13.826;2023-05-07T08:11:39;12.10;99.90
1277;DHT22;631;51.024;13.826;2023-05-07T08:14:05;12.10;99.90
1277;DHT22;631;51.024;13.826;2023-05-07T08:16:30;12.20;99.90
1277;DHT22;631;51.024;13.826;2023-05-07T08:18:56;12.30;99.90
1277;DHT22;631;51.024;13.826;2023-05-07T08:21:22;12.30;99.90
1277;DHT22;631;51.024;13.826;2023-05-07T08:23:48;12.30;99.90
1277;DHT22;631;51.024;13.826;2023-05-07T08:26:14;12.40;99.90
1277;DHT22;631;51.024;13.826;2023-05-07T08:28:40;12.50;99.90
1277;DHT22;631;51.024;13.826;2023-05-07T08:31:05;12.50;99.90
1277;DHT22;631;51.024;13.826;2023-05-07T08:33:31;12.50;99.90
1277;DHT22;631;51.024;13.826;2023-05-07T08:35:56;12.50;99.90
1277;DHT22;631;51.024;13.826;2023-05-07T08:38:22;12.60;99.90
1277;DHT22;631;51.024;13.826;2023-05-07T08:40:48;12.60;99.90
1277;DHT22;631;51.024;13.826;2023-05-07T08:43:14;12.70;99.90
1277;DHT22;631;51.024;13.826;2023-05-07T08:45:41;12.80;99.90
1277;DHT22;631;51.024;13.826;2023-05-07T08:48:15;12.80;99.90
1277;DHT22;631;51.024;13.826;2023-05-07T08:50:41;12.80;99.90
1277;DHT22;631;51.024;13.826;2023-05-07T08:53:07;12.90;99.90
1277;DHT22;631;51.024;13.826;2023-05-07T08:55:32;12.90;99.90
1277;DHT22;631;51.024;13.826;2023-05-07T08:57:59;12.90;99.90
1277;DHT22;631;51.024;13.826;2023-05-07T09:00:24;12.80;99.90
1277;DHT22;631;51.024;13.826;2023-05-07T09:02:50;12.90;99.90
1277;DHT22;631;51.024;13.826;2023-05-07T09:05:16;13.00;99.90
1277;DHT22;631;51.024;13.826;2023-05-07T09:07:41;13.00;99.90
1277;DHT22;631;51.024;13.826;2023-05-07T09:10:07;13.00;99.90
1277;DHT22;631;51.024;13.826;2023-05-07T09:12:33;13.10;99.90
1277;DHT22;631;51.024;13.826;2023-05-07T09:15:00;13.10;99.90
1277;DHT22;631;51.024;13.826;2023-05-07T09:17:26;13.00;99.90
1277;DHT22;631;51.024;13.826;2023-05-07T09:19:52;12.90;99.90
1277;DHT22;631;51.024;13.826;2023-05-07T09:22:18;13.00;99.90
1277;DHT22;631;51.024;13.826;2023-05-07T09:24:48;13.10;99.90
1277;DHT22;631;51.024;13.826;2023-05-07T09:27:14;13.20;99.90
1277;DHT22;631;51.024;13.826;2023-05-07T09:29:40;13.20;99.90
1277;DHT22;631;51.024;13.826;2023-05-07T09:32:07;13.20;99.90
1277;DHT22;631;51.024;13.826;2023-05-07T09:34:33;13.20;99.90
1277;DHT22;631;51.024;13.826;2023-05-07T09:37:03;13.10;99.90
1277;DHT22;631;51.024;13.826;2023-05-07T09:39:47;13.20;99.90
1277;DHT22;631;51.024;13.826;2023-05-07T09:42:13;13.40;99.90
1277;DHT22;631;51.024;13.826;2023-05-07T09:44:43;13.50;99.90
1277;DHT22;631;51.024;13.826;2023-05-07T09:47:10;13.60;99.90
1277;DHT22;631;51.024;13.826;2023-05-07T09:49:39;13.70;99.90
1277;DHT22;631;51.024;13.826;2023-05-07T09:52:06;13.80;99.90
1277;DHT22;631;51.024;13.826;2023-05-07T09:54:34;14.00;99.90
1277;DHT22;631;51.024;13.826;2023-05-07T09:57:04;14.10;99.90
1277;DHT22;631;51.024;13.826;2023-05-07T09:59:32;14.10;99.90
1277;DHT22;631;51.024;13.826;2023-05-07T10:01:59;14.30;99.90
1277;DHT22;631;51.024;13.826;2023-05-07T10:04:28;14.30;99.90
1277;DHT22;631;51.024;13.826;2023-05-07T10:06:54;14.30;99.90
1277;DHT22;631;51.024;13.826;2023-05-07T10:09:21;14.40;99.80
1277;DHT22;631;51.024;13.826;2023-05-07T10:11:49;14.60;99.90
1277;DHT22;631;51.024;13.826;2023-05-07T10:14:15;14.60;99.50
1277;DHT22;631;51.024;13.826;2023-05-07T10:16:41;14.60;99.10
1277;DHT22;631;51.024;13.826;2023-05-07T10:19:09;14.60;99.10
1277;DHT22;631;51.024;13.826;2023-05-07T10:21:39;14.60;99.30
1277;DHT22;631;51.024;13.826;2023-05-07T10:24:12;14.60;99.10
1277;DHT22;631;51.024;13.826;2023-05-07T10:26:45;14.60;99.20
1277;DHT22;631;51.024;13.826;2023-05-07T10:29:31;14.60;99.20
1277;DHT22;631;51.024;13.826;2023-05-07T10:34:47;14.60;99.00
1277;DHT22;631;51.024;13.826;2023-05-07T10:37:14;14.80;98.20
1277;DHT22;631;51.024;13.826;2023-05-07T10:39:40;14.90;98.00
1277;DHT22;631;51.024;13.826;2023-05-07T10:42:10;15.10;97.20
1277;DHT22;631;51.024;13.826;2023-05-07T10:44:36;15.30;96.80
1277;DHT22;631;51.024;13.826;2023-05-07T10:47:09;15.30;96.50
1277;DHT22;631;51.024;13.826;2023-05-07T10:49:38;15.40;96.80
1277;DHT22;631;51.024;13.826;2023-05-07T10:52:22;15.50;96.40
1277;DHT22;631;51.024;13.826;2023-05-07T10:57:43;15.40;95.80
1277;DHT22;631;51.024;13.826;2023-05-07T11:05:32;15.40;96.00
1277;DHT22;631;51.024;13.826;2023-05-07T11:08:02;15.30;96.10
1277;DHT22;631;51.024;13.826;2023-05-07T11:10:47;15.30;96.60
1277;DHT22;631;51.024;13.826;2023-05-07T11:13:14;15.20;95.80
1277;DHT22;631;51.024;13.826;2023-05-07T11:15:42;15.20;96.40
1277;DHT22;631;51.024;13.826;2023-05-07T11:18:10;15.30;96.50
1277;DHT22;631;51.024;13.826;2023-05-07T11:20:52;15.30;96.00
1277;DHT22;631;51.024;13.826;2023-05-07T11:26:05;15.40;95.50
1277;DHT22;631;51.024;13.826;2023-05-07T11:28:42;15.40;95.80
1277;DHT22;631;51.024;13.826;2023-05-07T11:31:09;15.50;95.80
1277;DHT22;631;51.024;13.826;2023-05-07T11:33:35;15.60;95.80
1277;DHT22;631;51.024;13.826;2023-05-07T11:36:03;15.50;95.20
1277;DHT22;631;51.024;13.826;2023-05-07T11:38:30;15.60;95.20
1277;DHT22;631;51.024;13.826;2023-05-07T11:40:58;15.60;95.30
1277;DHT22;631;51.024;13.826;2023-05-07T11:43:26;15.60;95.10
1277;DHT22;631;51.024;13.826;2023-05-07T11:45:52;15.60;95.30
1277;DHT22;631;51.024;13.826;2023-05-07T11:48:18;15.50;95.70
1277;DHT22;631;51.024;13.826;2023-05-07T11:50:53;15.50;95.80
1277;DHT22;631;51.024;13.826;2023-05-07T11:53:19;15.60;96.20
1277;DHT22;631;51.024;13.826;2023-05-07T11:55:46;15.70;95.70
1277;DHT22;631;51.024;13.826;2023-05-07T11:58:12;15.70;95.00
1277;DHT22;631;51.024;13.826;2023-05-07T12:00:52;15.80;94.80
1277;DHT22;631;51.024;13.826;2023-05-07T12:03:19;15.90;95.00
1277;DHT22;631;51.024;13.826;2023-05-07T12:05:46;16.10;94.90
1277;DHT22;631;51.024;13.826;2023-05-07T12:08:18;16.20;94.30
1277;DHT22;631;51.024;13.826;2023-05-07T12:10:46;16.40;94.30
1277;DHT22;631;51.024;13.826;2023-05-07T12:13:23;16.50;94.40
1277;DHT22;631;51.024;13.826;2023-05-07T12:15:56;16.50;94.30
1277;DHT22;631;51.024;13.826;2023-05-07T12:18:22;16.50;93.30
1277;DHT22;631;51.024;13.826;2023-05-07T12:20:49;16.40;93.20
1277;DHT22;631;51.024;13.826;2023-05-07T12:23:15;16.30;93.50
1277;DHT22;631;51.024;13.826;2023-05-07T12:25:42;16.30;93.50
1277;DHT22;631;51.024;13.826;2023-05-07T12:28:16;16.50;94.20
1277;DHT22;631;51.024;13.826;2023-05-07T12:30:46;16.50;93.60
1277;DHT22;631;51.024;13.826;2023-05-07T12:33:16;16.60;93.50
1277;DHT22;631;51.024;13.826;2023-05-07T12:35:42;16.80;93.50
1277;DHT22;631;51.024;13.826;2023-05-07T12:38:13;17.00;93.20
1277;DHT22;631;51.024;13.826;2023-05-07T12:40:43;17.10;92.20
1277;DHT22;631;51.024;13.826;2023-05-07T12:43:18;17.30;91.70
1277;DHT22;631;51.024;13.826;2023-05-07T12:45:46;17.40;91.50
1277;DHT22;631;51.024;13.826;2023-05-07T12:48:12;17.60;91.40
1277;DHT22;631;51.024;13.826;2023-05-07T12:50:38;17.90;90.80
1277;DHT22;631;51.024;13.826;2023-05-07T12:53:04;18.00;90.50
1277;DHT22;631;51.024;13.826;2023-05-07T12:55:48;18.00;89.30
1277;DHT22;631;51.024;13.826;2023-05-07T12:58:24;18.00;90.10
1277;DHT22;631;51.024;13.826;2023-05-07T13:00:50;18.10;89.10
1277;DHT22;631;51.024;13.826;2023-05-07T13:03:25;18.10;88.80
1277;DHT22;631;51.024;13.826;2023-05-07T13:05:51;18.00;88.30
1277;DHT22;631;51.024;13.826;2023-05-07T13:08:26;18.00;87.40
1277;DHT22;631;51.024;13.826;2023-05-07T13:10:52;17.70;86.90
1277;DHT22;631;51.024;13.826;2023-05-07T13:13:19;17.60;89.30
1277;DHT22;631;51.024;13.826;2023-05-07T13:15:45;17.60;88.50
1277;DHT22;631;51.024;13.826;2023-05-07T13:18:11;17.60;88.40
1277;DHT22;631;51.024;13.826;2023-05-07T13:20:37;17.70;90.10
1277;DHT22;631;51.024;13.826;2023-05-07T13:23:02;17.80;89.60
1277;DHT22;631;51.024;13.826;2023-05-07T13:25:30;17.90;87.20
1277;DHT22;631;51.024;13.826;2023-05-07T13:27:56;17.80;87.00
1277;DHT22;631;51.024;13.826;2023-05-07T13:30:22;17.70;86.40
1277;DHT22;631;51.024;13.826;2023-05-07T13:32:48;17.60;87.20
1277;DHT22;631;51.024;13.826;2023-05-07T13:35:14;17.90;88.00
1277;DHT22;631;51.024;13.826;2023-05-07T13:37:40;18.00;86.60
1277;DHT22;631;51.024;13.826;2023-05-07T13:40:06;18.10;85.70
1277;DHT22;631;51.024;13.826;2023-05-07T13:42:32;17.80;85.90
1277;DHT22;631;51.024;13.826;2023-05-07T13:44:57;17.80;86.70
1277;DHT22;631;51.024;13.826;2023-05-07T13:47:23;17.80;87.50
1277;DHT22;631;51.024;13.826;2023-05-07T13:49:48;17.70;85.20
1277;DHT22;631;51.024;13.826;2023-05-07T13:52:15;17.50;85.20
1277;DHT22;631;51.024;13.826;2023-05-07T13:54:41;17.60;86.40
1277;DHT22;631;51.024;13.826;2023-05-07T13:57:07;17.70;87.00
1277;DHT22;631;51.024;13.826;2023-05-07T13:59:33;17.90;86.30
1277;DHT22;631;51.024;13.826;2023-05-07T14:01:58;17.90;84.70
1277;DHT22;631;51.024;13.826;2023-05-07T14:04:24;18.10;83.80
1277;DHT22;631;51.024;13.826;2023-05-07T14:06:50;17.90;82.30
1277;DHT22;631;51.024;13.826;2023-05-07T14:09:15;17.50;83.90
1277;DHT22;631;51.024;13.826;2023-05-07T14:11:41;17.30;86.30
1277;DHT22;631;51.024;13.826;2023-05-07T14:14:07;17.20;85.80
1277;DHT22;631;51.024;13.826;2023-05-07T14:16:32;17.20;85.70
1277;DHT22;631;51.024;13.826;2023-05-07T14:18:58;17.20;86.40
1277;DHT22;631;51.024;13.826;2023-05-07T14:21:24;17.20;87.00
1277;DHT22;631;51.024;13.826;2023-05-07T14:23:49;17.40;86.40
1277;DHT22;631;51.024;13.826;2023-05-07T14:26:15;17.40;84.30
1277;DHT22;631;51.024;13.826;2023-05-07T14:28:41;17.50;85.00
1277;DHT22;631;51.024;13.826;2023-05-07T14:31:11;17.70;84.10
1277;DHT22;631;51.024;13.826;2023-05-07T14:33:37;18.00;83.20
1277;DHT22;631;51.024;13.826;2023-05-07T14:36:03;17.90;82.60
1277;DHT22;631;51.024;13.826;2023-05-07T14:38:29;17.90;81.90
1277;DHT22;631;51.024;13.826;2023-05-07T14:40:55;17.70;81.80
1277;DHT22;631;51.024;13.826;2023-05-07T14:43:21;17.80;82.40
1277;DHT22;631;51.024;13.826;2023-05-07T14:45:47;17.60;82.60
1277;DHT22;631;51.024;13.826;2023-05-07T14:48:13;17.30;84.10
1277;DHT22;631;51.024;13.826;2023-05-07T14:50:41;17.20;84.80
1277;DHT22;631;51.024;13.826;2023-05-07T14:53:07;17.20;85.50
1277;DHT22;631;51.024;13.826;2023-05-07T14:55:34;17.00;84.40
1277;DHT22;631;51.024;13.826;2023-05-07T14:57:59;17.00;86.00
1277;DHT22;631;51.024;13.826;2023-05-07T15:00:25;17.10;87.20
1277;DHT22;631;51.024;13.826;2023-05-07T15:02:51;16.80;86.90
1277;DHT22;631;51.024;13.826;2023-05-07T15:05:16;16.60;86.50
1277;DHT22;631;51.024;13.826;2023-05-07T15:07:44;16.50;88.20
1277;DHT22;631;51.024;13.826;2023-05-07T15:10:09;16.40;89.30
1277;DHT22;631;51.024;13.826;2023-05-07T15:12:35;16.30;89.40
1277;DHT22;631;51.024;13.826;2023-05-07T15:15:01;16.20;88.40
1277;DHT22;631;51.024;13.826;2023-05-07T15:17:26;16.30;89.90
1277;DHT22;631;51.024;13.826;2023-05-07T15:19:52;16.30;90.10
1277;DHT22;631;51.024;13.826;2023-05-07T15:22:17;16.20;90.10
1277;DHT22;631;51.024;13.826;2023-05-07T15:24:43;16.00;90.00
1277;DHT22;631;51.024;13.826;2023-05-07T15:27:09;16.10;90.50
1277;DHT22;631;51.024;13.826;2023-05-07T15:29:35;16.00;90.40
1277;DHT22;631;51.024;13.826;2023-05-07T15:32:01;15.90;90.80
1277;DHT22;631;51.024;13.826;2023-05-07T15:34:26;15.80;90.10
1277;DHT22;631;51.024;13.826;2023-05-07T15:36:52;15.70;90.00
1277;DHT22;631;51.024;13.826;2023-05-07T15:39:18;15.60;90.00
1277;DHT22;631;51.024;13.826;2023-05-07T15:41:43;15.50;90.10
1277;DHT22;631;51.024;13.826;2023-05-07T15:44:09;15.50;91.00
1277;DHT22;631;51.024;13.826;2023-05-07T15:46:35;15.30;91.10
1277;DHT22;631;51.024;13.826;2023-05-07T15:49:02;15.30;91.60
1277;DHT22;631;51.024;13.826;2023-05-07T15:51:29;15.10;91.80
1277;DHT22;631;51.024;13.826;2023-05-07T15:53:56;15.10;92.60
1277;DHT22;631;51.024;13.826;2023-05-07T15:56:22;15.20;92.60
1277;DHT22;631;51.024;13.826;2023-05-07T15:58:47;15.20;91.90
1277;DHT22;631;51.024;13.826;2023-05-07T16:01:14;15.30;92.50
1277;DHT22;631;51.024;13.826;2023-05-07T16:03:40;15.40;92.30
1277;DHT22;631;51.024;13.826;2023-05-07T16:06:06;15.30;91.50
1277;DHT22;631;51.024;13.826;2023-05-07T16:08:32;15.30;92.00
1277;DHT22;631;51.024;13.826;2023-05-07T16:10:58;15.20;91.90
1277;DHT22;631;51.024;13.826;2023-05-07T16:13:24;15.20;92.00
1277;DHT22;631;51.024;13.826;2023-05-07T16:15:55;15.10;91.80